Terminal Aerodrome Forecast
Issued by NWS

Home | Current Version | Previous Version | Text Only | Print | Product List | Glossary On
Versions: 1 2 3 4 5 6 7 8 9 10 11 12 13 14 15 16 17 18 19 20 21 22 23 24 25 26 27 28 29 30
000
FTUS45 KLKN 220000 AAA
TAFWMC
TAF AMD
KWMC 220015Z 2200/2224 VRB06KT P6SM VCTS FEW090CB
     FM220300 VRB05KT P6SM VCSH SCT080
     FM220600 VRB04KT P6SM SCT090
     FM222000 23008KT P6SM SCT100=

USA.gov is the U.S. government's official web portal to all federal, state and local government web resources and services.